createdAt,value
2022-08-05T00:01:36.511Z,93.27
2022-08-05T00:04:18.844Z,92.89
2022-08-05T00:06:47.569Z,93.16
2022-08-05T00:09:20.800Z,93.20
2022-08-05T00:11:55.608Z,93.16
2022-08-05T00:14:29.340Z,93.16
2022-08-05T00:17:01.832Z,92.98
2022-08-05T00:19:33.683Z,93.19
2022-08-05T00:22:11.209Z,92.94
2022-08-05T00:24:42.629Z,93.43
2022-08-05T00:27:13.995Z,93.36
2022-08-05T00:29:45.563Z,93.78
2022-08-05T00:32:15.345Z,93.55
2022-08-05T00:35:03.842Z,93.64
2022-08-05T00:37:53.547Z,93.85
2022-08-05T00:40:29.290Z,93.71
2022-08-05T00:43:01.996Z,94.01
2022-08-05T00:45:42.958Z,94.19
2022-08-05T00:48:31.197Z,94.10
2022-08-05T00:51:00.495Z,94.04
2022-08-05T00:54:01.456Z,93.88
2022-08-05T00:56:26.623Z,93.34
2022-08-05T00:58:56.222Z,92.93
2022-08-05T01:01:42.928Z,92.25
2022-08-05T01:04:15.859Z,92.92
2022-08-05T01:06:48.769Z,93.11
2022-08-05T01:09:20.113Z,93.03
2022-08-05T01:11:56.322Z,94.35
2022-08-05T01:14:31.612Z,94.78
2022-08-05T01:17:32.145Z,94.62
2022-08-05T01:21:08.371Z,94.62
2022-08-05T01:24:13.079Z,94.62
2022-08-05T01:27:24.226Z,94.29
2022-08-05T01:29:58.772Z,94.25
2022-08-05T01:32:32.263Z,94.07
2022-08-05T01:35:53.316Z,93.37
2022-08-05T01:38:08.965Z,93.73
2022-08-05T01:40:55.985Z,94.16
2022-08-05T01:43:28.454Z,94.16
2022-08-05T01:46:07.242Z,93.71
2022-08-05T01:48:49.717Z,94.04
2022-08-05T01:51:19.275Z,93.93
2022-08-05T01:53:56.989Z,93.58
2022-08-05T01:58:11.071Z,93.76
2022-08-05T01:59:23.336Z,94.16
2022-08-05T02:01:55.601Z,94.33
2022-08-05T02:04:29.961Z,94.49
2022-08-05T02:06:59.493Z,94.25
2022-08-05T02:09:28.675Z,94.27
2022-08-05T02:12:07.116Z,94.28
2022-08-05T02:14:53.171Z,94.67
2022-08-05T02:18:30.888Z,94.77
2022-08-05T02:21:15.643Z,94.43
2022-08-05T02:23:50.562Z,94.73
2022-08-05T02:26:28.647Z,94.78
2022-08-05T02:28:58.643Z,94.18
2022-08-05T02:31:34.613Z,94.09
2022-08-05T02:34:15.823Z,94.01
2022-08-05T02:36:55.580Z,94.20
2022-08-05T02:39:28.124Z,94.34
2022-08-05T02:42:01.183Z,94.97
2022-08-05T02:44:34.537Z,94.88
2022-08-05T02:47:08.342Z,95.05
2022-08-05T02:49:42.508Z,95.20
2022-08-05T02:52:29.326Z,95.47
2022-08-05T02:55:05.531Z,94.89
2022-08-05T02:58:12.349Z,94.79
2022-08-05T03:00:29.618Z,94.91
2022-08-05T03:03:00.283Z,94.80
2022-08-05T03:06:53.761Z,95.71
2022-08-05T03:08:27.182Z,95.45
2022-08-05T03:11:45.939Z,95.16
2022-08-05T03:13:51.413Z,95.33
2022-08-05T03:16:31.969Z,95.44
2022-08-05T03:19:04.263Z,95.39
2022-08-05T03:21:48.761Z,95.35
2022-08-05T03:24:30.028Z,95.06
2022-08-05T03:27:01.156Z,95.65
2022-08-05T03:29:45.748Z,94.80
2022-08-05T03:32:20.457Z,94.38
2022-08-05T03:34:51.040Z,94.32
2022-08-05T03:37:22.987Z,94.24
2022-08-05T03:40:04.037Z,93.96
2022-08-05T03:42:51.474Z,93.39
2022-08-05T03:45:23.412Z,93.26
2022-08-05T03:47:56.836Z,93.42
2022-08-05T03:50:46.751Z,93.23
2022-08-05T03:55:52.226Z,92.99
2022-08-05T03:56:50.334Z,92.84
2022-08-05T03:59:47.388Z,92.61
2022-08-05T04:02:37.911Z,92.11
2022-08-05T04:05:12.905Z,91.77
2022-08-05T04:07:57.130Z,91.34
2022-08-05T04:10:33.252Z,91.43
2022-08-05T04:13:08.662Z,90.94
2022-08-05T04:15:37.958Z,90.49
2022-08-05T04:18:25.779Z,90.47
2022-08-05T04:20:58.430Z,90.67
2022-08-05T04:24:05.719Z,90.43
2022-08-05T04:26:19.049Z,90.75
2022-08-05T04:28:51.688Z,90.73
2022-08-05T04:31:21.348Z,90.18
2022-08-05T04:34:19.125Z,90.36
2022-08-05T04:36:49.626Z,90.11
2022-08-05T04:39:20.627Z,89.44
2022-08-05T04:41:52.427Z,88.99
2022-08-05T04:44:56.645Z,88.35
2022-08-05T04:47:25.733Z,88.42
2022-08-05T04:50:03.087Z,87.34
2022-08-05T04:53:15.509Z,87.34
2022-08-05T04:56:15.490Z,86.72
2022-08-05T05:18:36.292Z,82.62
2022-08-05T05:21:06.211Z,81.87
2022-08-05T05:23:39.537Z,82.09
2022-08-05T05:48:09.228Z,78.54
2022-08-05T07:44:14.391Z,61.20
2022-08-05T07:54:47.702Z,61.15
2022-08-05T08:26:17.558Z,58.32
2022-08-05T08:34:01.366Z,57.63
2022-08-05T08:36:48.803Z,56.55
2022-08-05T09:03:24.775Z,53.42
2022-08-05T09:10:11.902Z,52.49
2022-08-05T09:12:41.415Z,52.81
2022-08-05T09:15:11.480Z,52.60
2022-08-05T09:17:49.416Z,51.31
2022-08-05T09:20:36.467Z,51.80
2022-08-05T09:23:19.484Z,51.65
2022-08-05T09:26:20.512Z,51.09
2022-08-05T09:28:50.139Z,51.12
2022-08-05T09:31:44.125Z,50.97
2022-08-05T09:34:13.016Z,50.38
2022-08-05T09:36:56.317Z,50.33
2022-08-05T09:39:41.632Z,49.77
2022-08-05T09:42:24.389Z,49.59
2022-08-05T09:45:17.468Z,49.52
2022-08-05T09:47:57.685Z,49.48
2022-08-05T09:50:44.563Z,49.20
2022-08-05T09:53:26.044Z,49.10
2022-08-05T09:56:12.608Z,48.67
2022-08-05T09:58:42.387Z,47.71
2022-08-05T10:01:15.209Z,47.37
2022-08-05T10:04:10.243Z,46.94
2022-08-05T10:06:59.036Z,46.91
2022-08-05T10:09:29.581Z,46.87
2022-08-05T10:12:30.337Z,45.93
2022-08-05T10:15:20.980Z,46.16
2022-08-05T10:18:20.310Z,45.99
2022-08-05T10:20:56.985Z,46.37
2022-08-05T10:23:55.304Z,46.43
2022-08-05T10:26:18.059Z,46.23
2022-08-05T10:28:48.241Z,45.41
2022-08-05T10:32:50.784Z,44.76
2022-08-05T10:34:08.893Z,44.18
2022-08-05T10:36:39.894Z,44.05
2022-08-05T10:39:24.502Z,44.39
2022-08-05T10:42:11.327Z,43.94
2022-08-05T10:44:46.552Z,42.29
2022-08-05T10:47:26.127Z,42.33
2022-08-05T10:50:33.238Z,42.42
2022-08-05T10:53:01.712Z,42.91
2022-08-05T10:55:38.531Z,43.61
2022-08-05T10:58:21.287Z,43.70
2022-08-05T11:00:55.294Z,43.75
2022-08-05T11:03:32.610Z,43.95
2022-08-05T11:06:15.974Z,42.79
2022-08-05T11:09:32.354Z,42.22
2022-08-05T11:12:41.225Z,42.16
2022-08-05T11:16:00.577Z,42.36
2022-08-05T11:18:34.655Z,41.84
2022-08-05T11:21:11.216Z,40.80
2022-08-05T11:28:23.267Z,37.62
2022-08-05T11:30:58.715Z,37.03
2022-08-05T11:34:09.278Z,37.05
2022-08-05T11:36:53.021Z,37.92
2022-08-05T11:40:00.766Z,38.48
2022-08-05T11:44:00.932Z,40.14
2022-08-05T11:46:30.915Z,41.19
2022-08-05T11:49:05.527Z,41.64
2022-08-05T11:51:43.594Z,41.68
2022-08-05T11:54:40.583Z,41.99
2022-08-05T12:05:17.939Z,38.35
2022-08-05T12:08:08.073Z,36.62
2022-08-05T12:11:48.161Z,36.37
2022-08-05T12:15:59.527Z,35.21
2022-08-05T12:18:33.328Z,35.20
2022-08-05T12:21:47.254Z,34.63
2022-08-05T12:25:56.902Z,34.87
2022-08-05T12:29:37.968Z,34.56
2022-08-05T12:33:26.973Z,34.43
2022-08-05T12:37:42.653Z,33.80
2022-08-05T12:42:21.042Z,31.94
2022-08-05T12:44:50.201Z,30.96
2022-08-05T12:47:32.770Z,30.64
2022-08-05T12:52:18.778Z,31.16
2022-08-05T12:57:01.668Z,30.82
2022-08-05T13:02:01.081Z,31.29
2022-08-05T13:24:27.779Z,29.09
2022-08-05T13:27:10.909Z,29.16
2022-08-05T13:29:40.073Z,29.02
2022-08-05T13:32:35.119Z,29.76
2022-08-05T13:35:09.859Z,29.42
2022-08-05T13:37:38.501Z,27.76
2022-08-05T13:40:16.400Z,27.22
2022-08-05T13:42:49.045Z,26.95
2022-08-05T13:45:43.200Z,27.26
2022-08-05T13:48:58.070Z,27.61
2022-08-05T13:59:55.580Z,28.22
2022-08-05T14:02:29.877Z,29.28
2022-08-05T14:08:41.131Z,30.35
2022-08-05T14:11:20.201Z,31.42
2022-08-05T14:14:34.648Z,32.22
2022-08-05T14:17:04.825Z,32.83
2022-08-05T14:20:31.320Z,32.44
2022-08-05T14:23:00.562Z,31.93
2022-08-05T14:25:31.363Z,31.99
2022-08-05T14:28:00.097Z,31.39
2022-08-05T14:30:29.906Z,30.78
2022-08-05T14:32:59.019Z,30.66
2022-08-05T14:35:37.492Z,31.01
2022-08-05T14:38:32.093Z,30.45
2022-08-05T14:41:07.243Z,30.14
2022-08-05T14:44:00.310Z,31.08
2022-08-05T14:48:33.486Z,31.04
2022-08-05T14:51:03.228Z,30.01
2022-08-05T14:53:31.968Z,29.28
2022-08-05T14:56:13.511Z,28.87
2022-08-05T14:58:47.543Z,28.27
2022-08-05T15:02:14.927Z,28.14
2022-08-05T15:04:47.936Z,28.62
2022-08-05T15:08:04.548Z,28.01
2022-08-05T15:10:46.223Z,29.19
2022-08-05T15:15:55.747Z,29.45
2022-08-05T15:19:52.877Z,32.41
2022-08-05T15:23:38.879Z,32.81
2022-08-05T15:26:08.411Z,33.43
2022-08-05T15:28:38.393Z,34.13
2022-08-05T15:31:11.975Z,34.13
2022-08-05T15:34:18.848Z,34.15
2022-08-05T15:36:38.672Z,34.90
2022-08-05T15:40:59.222Z,34.21
2022-08-05T15:41:59.098Z,34.00
2022-08-05T15:44:31.235Z,32.88
2022-08-05T15:47:06.154Z,33.19
2022-08-05T15:49:53.686Z,33.74
2022-08-05T15:52:51.561Z,33.87
2022-08-05T15:55:16.678Z,34.55
2022-08-05T15:57:48.838Z,34.96
2022-08-05T16:00:26.311Z,35.43
2022-08-05T16:03:01.600Z,33.91
2022-08-05T16:05:30.983Z,32.64
2022-08-05T16:08:00.065Z,32.46
2022-08-05T16:10:28.969Z,31.66
2022-08-05T16:12:57.969Z,30.52
2022-08-05T16:15:32.709Z,29.89
2022-08-05T16:18:04.237Z,30.21
2022-08-05T16:20:41.648Z,30.13
2022-08-05T16:23:10.521Z,29.91
2022-08-05T16:28:04.948Z,29.71
2022-08-05T16:30:36.103Z,30.74
2022-08-05T16:33:05.172Z,30.57
2022-08-05T16:35:41.936Z,30.00
2022-08-05T16:38:18.448Z,30.16
2022-08-05T16:41:01.484Z,31.22
2022-08-05T16:43:34.143Z,31.01
2022-08-05T16:46:23.637Z,31.41
2022-08-05T16:48:53.456Z,31.59
2022-08-05T16:51:42.296Z,31.94
2022-08-05T16:54:17.473Z,31.90
2022-08-05T16:56:52.230Z,32.05
2022-08-05T16:59:20.866Z,32.45
2022-08-05T17:01:54.203Z,33.17
2022-08-05T17:04:28.056Z,34.59
2022-08-05T17:07:01.475Z,35.97
2022-08-05T17:09:56.055Z,36.49
2022-08-05T17:12:22.735Z,36.93
2022-08-05T17:15:55.694Z,38.10
2022-08-05T17:18:36.457Z,39.27
2022-08-05T17:21:17.378Z,39.81
2022-08-05T17:24:05.035Z,40.96
2022-08-05T17:27:12.729Z,41.67
2022-08-05T17:29:45.724Z,43.20
2022-08-05T17:32:17.696Z,44.11
2022-08-05T17:37:41.005Z,46.26
2022-08-05T17:40:41.484Z,47.84
2022-08-05T17:43:11.725Z,48.36
2022-08-05T17:47:53.470Z,49.41
2022-08-05T17:52:06.301Z,51.81
2022-08-05T17:54:35.937Z,53.16
2022-08-05T17:57:05.650Z,53.98
2022-08-05T17:59:43.537Z,54.70
2022-08-05T18:02:13.255Z,55.31
2022-08-05T18:04:51.206Z,55.95
2022-08-05T18:07:22.349Z,56.27
2022-08-05T18:09:59.895Z,56.39
2022-08-05T18:12:29.384Z,56.08
2022-08-05T18:14:58.959Z,56.63
2022-08-05T18:17:59.644Z,56.77
2022-08-05T18:20:16.312Z,57.45
2022-08-05T18:22:54.765Z,57.57
2022-08-05T18:25:59.687Z,57.66
2022-08-05T18:28:28.618Z,58.18
2022-08-05T18:30:57.322Z,58.51
2022-08-05T18:33:26.051Z,59.01
2022-08-05T18:36:11.881Z,59.67
2022-08-05T18:38:44.296Z,60.18
2022-08-05T18:41:58.151Z,60.65
2022-08-05T18:44:34.907Z,60.98
2022-08-05T18:47:04.362Z,61.67
2022-08-05T18:49:57.806Z,61.85
2022-08-05T18:52:50.813Z,62.18
2022-08-05T18:55:22.249Z,62.02
2022-08-05T18:57:53.825Z,62.51
2022-08-05T19:00:29.235Z,62.91
2022-08-05T19:03:07.428Z,62.74
2022-08-05T19:06:11.915Z,62.77
2022-08-05T19:08:30.999Z,63.24
2022-08-05T19:11:04.517Z,63.38
2022-08-05T19:13:35.638Z,63.57
2022-08-05T19:16:24.421Z,64.01
2022-08-05T19:19:32.075Z,64.45
2022-08-05T19:22:03.094Z,64.52
2022-08-05T19:24:34.415Z,64.66
2022-08-05T19:27:08.286Z,64.70
2022-08-05T19:29:50.300Z,65.05
2022-08-05T19:32:19.529Z,65.27
2022-08-05T19:34:54.579Z,65.38
2022-08-05T19:37:34.847Z,65.19
2022-08-05T19:40:54.047Z,65.54
2022-08-05T19:44:04.178Z,65.40
2022-08-05T19:46:16.959Z,65.28
2022-08-05T19:49:04.057Z,65.38
2022-08-05T19:52:05.328Z,65.38
2022-08-05T19:54:31.497Z,65.92
2022-08-05T19:57:11.889Z,65.69
2022-08-05T19:59:55.915Z,66.08
2022-08-05T20:03:05.511Z,66.06
2022-08-05T20:05:43.143Z,66.00
2022-08-05T20:09:13.669Z,65.90
2022-08-05T20:11:48.210Z,65.82
2022-08-05T20:14:26.562Z,66.22
2022-08-05T20:16:58.739Z,66.41
2022-08-05T20:19:36.077Z,65.48
2022-08-05T20:22:05.366Z,65.25
2022-08-05T20:24:38.527Z,65.15
2022-08-05T20:27:11.244Z,64.92
2022-08-05T20:29:40.356Z,64.32
2022-08-05T20:32:09.024Z,63.50
2022-08-05T20:34:39.026Z,62.85
2022-08-05T20:37:24.274Z,63.60
2022-08-05T20:39:58.961Z,63.72
2022-08-05T20:42:28.214Z,63.72
2022-08-05T20:44:56.972Z,63.34
2022-08-05T20:47:31.107Z,62.09
2022-08-05T20:50:02.567Z,62.64
2022-08-05T20:52:34.120Z,63.50
2022-08-05T20:55:56.341Z,63.53
2022-08-05T20:57:52.225Z,64.31
2022-08-05T21:00:41.904Z,65.73
2022-08-05T21:03:34.743Z,65.84
2022-08-05T21:06:03.642Z,65.95
2022-08-05T21:08:41.363Z,65.34
2022-08-05T21:11:15.114Z,66.96
2022-08-05T21:14:01.509Z,66.96
2022-08-05T21:16:31.034Z,67.49
2022-08-05T21:19:01.757Z,68.07
2022-08-05T21:21:39.043Z,67.68
2022-08-05T21:24:15.421Z,68.61
2022-08-05T21:26:53.345Z,67.95
2022-08-05T21:29:31.865Z,69.70
2022-08-05T21:32:04.568Z,68.88
2022-08-05T21:34:35.521Z,69.57
2022-08-05T21:37:05.337Z,70.03
2022-08-05T21:39:40.433Z,70.94
2022-08-05T21:42:30.648Z,70.82
2022-08-05T21:44:59.969Z,71.00
2022-08-05T21:47:54.984Z,71.09
2022-08-05T21:50:18.525Z,71.18
2022-08-05T21:52:47.586Z,72.22
2022-08-05T21:55:18.336Z,72.78
2022-08-05T21:58:07.306Z,73.04
2022-08-05T22:00:40.449Z,73.55
2022-08-05T22:03:15.319Z,73.63
2022-08-05T22:05:48.945Z,72.76
2022-08-05T22:08:22.059Z,71.98
2022-08-05T22:10:53.471Z,71.84
2022-08-05T22:14:34.438Z,72.64
2022-08-05T22:16:42.116Z,73.69
2022-08-05T22:18:59.412Z,74.38
2022-08-05T22:21:28.244Z,74.57
2022-08-05T22:24:40.807Z,74.43
2022-08-05T22:27:22.475Z,74.19
2022-08-05T22:29:54.122Z,74.36
2022-08-05T22:32:23.162Z,73.29
2022-08-05T22:34:52.942Z,73.95
2022-08-05T22:37:22.416Z,74.74
2022-08-05T22:39:51.159Z,75.21
2022-08-05T22:42:26.209Z,75.37
2022-08-05T22:44:56.628Z,75.82
2022-08-05T22:47:29.500Z,75.85
2022-08-05T22:50:19.178Z,76.08
2022-08-05T22:52:52.561Z,75.72
2022-08-05T22:55:23.597Z,74.91
2022-08-05T22:57:55.077Z,74.80
2022-08-05T23:00:24.603Z,74.96
2022-08-05T23:02:56.446Z,74.90
2022-08-05T23:05:27.009Z,74.45
2022-08-05T23:07:55.606Z,73.86
2022-08-05T23:10:24.458Z,73.59
2022-08-05T23:12:55.711Z,73.85
2022-08-05T23:15:35.417Z,74.70
2022-08-05T23:18:06.142Z,74.95
2022-08-05T23:20:43.148Z,75.24
2022-08-05T23:23:11.983Z,75.75
2022-08-05T23:25:52.253Z,74.63
2022-08-05T23:28:27.807Z,74.25
2022-08-05T23:31:15.869Z,74.21
2022-08-05T23:34:04.123Z,75.03
2022-08-05T23:36:39.929Z,75.08
2022-08-05T23:39:16.515Z,75.46
2022-08-05T23:41:53.891Z,75.50
2022-08-05T23:44:25.303Z,74.67
2022-08-05T23:47:14.575Z,75.03
2022-08-05T23:49:46.320Z,74.81
2022-08-05T23:52:27.743Z,75.45
2022-08-05T23:55:00.595Z,75.72
2022-08-05T23:57:30.311Z,75.97
